Arguello, Argentina
Current Conditions -  °F | °C
As of 3:00 PM on Friday 31 Oct 2014 (Local Time) from SACO Reporting Station
Overcast Overcast  
Wind Chill: 61°   Ceiling: 1300
Heat Index: 61°   Visibility: 6mi
Dew Point: 46°   Wind: 15mph
Humidity: 59%   Direction: 180°S
Pressure: 30.06"   Gusts: NA
Location:  31.36°S, 64.25°W
Report Text: SACO 311800Z 18013KT 9999 BKN013 OVC020 16/08 Q1018
Loading
Personal Weather Stations






























Interactive Weather Map
Tropical Storm Tracking
New forecast layout! Learn more

10-Day Weather Forecast

Advertisements
Track Severe Weather on mobile